Latest Coastal Weather Observations for Double Island Point

IDQ60701

Issued at 11:05 pm EST Monday 20 October 2014 (issued every 10 minutes, with the page automatically refreshed every 10 minutes)

About coastal observations | Map of coastal stations | Coastal observations for QLD | Marine services | Other Formats
Station Details ID: 040068 Name: DOUBLE ISLAND POINT LIGHTHOUSE Lat: -25.93 Lon: 153.19 Height: 95.64 m
Data from the previous 72 hours. | See also: Recent months at Double Island Point
Date/Time
EST
Temp

°C
Wind Pressure Rain
since 9am
mm
Weather Cloud Vis
km
Sea
Height
m
Swell
Dir
 
Speed
knots
Gust
knots
hPa Trend Height
m
Period
s
Dir
20/11:00pm 19.9 ESE 19 22 1025.4 - 0.0 - - - - - - -
20/10:30pm 20.1 ESE 18 22 1025.4 - 0.0 - - - - - - -
20/10:00pm 20.2 ESE 17 20 1025.4 - 0.0 - - - - - - -
20/09:30pm 20.1 ESE 17 21 1025.2 - 0.0 - - - - - - -
20/09:00pm 20.1 ESE 17 21 1024.9 - 0.0 - - - - - - -
20/08:30pm 20.0 ESE 16 19 1024.7 - 0.0 - - - - - - -
20/08:00pm 19.9 ESE 15 19 1024.2 - 0.0 - - - - - - -
20/07:30pm 19.9 E 14 17 1023.7 - 0.0 - - - - - - -
20/07:00pm 20.0 E 14 19 1023.4 - 0.0 - - - - - - -
20/06:30pm 20.0 E 14 17 1023.1 - 0.0 - - - - - - -
20/06:00pm 20.1 ESE 13 16 1022.6 - 0.0 - - - - - - -
20/05:30pm 20.5 E 13 16 1022.4 - 0.0 - - - - - - -
20/05:00pm 20.9 ESE 11 15 1022.1 - 0.0 - - - - - - -
20/04:30pm 21.6 E 11 13 1021.8 - 0.0 - - - - - - -
20/04:00pm 21.9 E 11 13 1021.9 - 0.0 - - - - - - -
20/03:30pm 22.2 ESE 10 13 1021.9 - 0.0 - - - - - - -
20/03:00pm 22.8 ESE 11 13 1021.9 - 0.0 - - - - - - -
20/02:30pm 22.9 ESE 11 14 1021.9 - 0.0 - - - - - - -
20/02:00pm 23.1 ESE 10 13 1022.2 - 0.0 - - - - - - -
20/01:30pm 23.8 ESE 10 13 1022.5 - 0.0 - - - - - - -
20/01:00pm 23.1 SE 12 14 1022.7 - 0.0 - - - - - - -
20/12:30pm 23.3 SE 12 15 1023.2 - 0.0 - - - - - - -
20/12:00pm 23.2 SSE 12 14 1023.4 - 0.0 - - - - - - -
20/11:30am 23.4 SE 12 15 1023.8 - 0.0 - - - - - - -
20/11:00am 23.2 SE 12 15 1024.1 - 0.0 - - - - - - -
20/10:30am 23.2 SE 11 14 1024.5 - 0.0 - - - - - - -
20/10:00am 23.1 SE 11 13 1024.9 - 0.0 - - - - - - -
20/09:30am 22.8 SE 11 14 1025.2 - 0.0 - - - - - - -
20/09:00am 23.2 SE 10 13 1025.2 - 0.0 - - - - - - -
20/08:30am 22.7 ESE 10 12 1025.1 - 0.0 - - - - - - -
20/08:00am 22.7 ESE 11 13 1025.1 - 0.0 - - - - - - -
20/07:30am 22.2 ESE 9 13 1024.9 - 0.0 - - - - - - -
20/07:00am 21.8 ESE 8 10 1024.7 - 0.0 - - - - - - -
20/06:30am 21.0 ESE 8 10 1024.4 - 0.0 - - - - - - -
20/06:00am 19.6 ESE 10 12 1024.1 - 0.0 - - - - - - -
20/05:30am 18.8 ESE 10 12 1023.7 - 0.0 - - - - - - -
20/05:00am 18.8 ESE 11 15 1023.4 - 0.0 - - - - - - -
20/04:30am 18.7 ESE 11 15 1023.4 - 0.0 - - - - - - -
20/04:00am 18.4 E 13 16 1023.3 - 0.0 - - - - - - -
20/03:30am 18.4 ESE 14 18 1023.1 - 0.0 - - - - - - -
20/03:00am 18.4 E 14 17 1023.3 - 0.0 - - - - - - -
20/02:30am 18.5 ESE 13 17 1023.4 - 0.0 - - - - - - -
20/02:00am 18.4 ESE 11 14 1023.7 - 0.0 - - - - - - -
20/01:30am 18.4 E 15 18 1023.8 - 0.0 - - - - - - -
20/01:00am 18.5 ESE 14 18 1024.1 - 0.0 - - - - - - -
20/12:30am 18.4 ESE 13 17 1024.4 - 0.0 - - - - - - -
20/12:00am 18.6 ESE 13 16 1024.7 - 0.0 - - - - - - -
 
Date/Time
EST
Temp

°C
Wind Pressure Rain
since 9am
mm
Weather Cloud Vis
km
Sea
Height
m
Swell
Dir
 
Speed
knots
Gust
knots
hPa Trend Height
m
Period
s
Dir
19/11:30pm 18.7 E 15 19 1024.9 - 0.0 - - - - - - -
19/11:00pm 18.8 ESE 15 19 1025.3 - 0.0 - - - - - - -
19/10:30pm 18.9 ESE 15 19 1025.4 - 0.0 - - - - - - -
19/10:00pm 19.1 ESE 17 21 1025.4 - 0.0 - - - - - - -
19/09:30pm 19.3 E 17 21 1025.4 - 0.0 - - - - - - -
19/09:00pm 19.4 E 17 21 1025.4 - 0.0 - - - - - - -
19/08:30pm 19.5 ESE 19 23 1025.3 - 0.0 - - - - - - -
19/08:00pm 19.5 ESE 18 21 1025.1 - 0.0 - - - - - - -
19/07:30pm 19.6 ESE 18 22 1024.8 - 0.0 - - - - - - -
19/07:00pm 19.6 ESE 18 23 1024.5 - 0.0 - - - - - - -
19/06:30pm 19.8 ESE 19 22 1024.1 - 0.0 - - - - - - -
19/06:00pm 19.9 ESE 19 22 1023.7 - 0.0 - - - - - - -
19/05:30pm 20.3 ESE 19 24 1023.3 - 0.0 - - - - - - -
19/05:00pm 20.5 ESE 21 25 1023.1 - 0.0 - - - - - - -
19/04:30pm 20.8 ESE 21 27 1023.0 - 0.0 - - - - - - -
19/04:00pm 21.2 SE 22 25 1022.9 - 0.0 - - - - - - -
19/03:30pm 21.5 SE 21 25 1022.9 - 0.0 - - - - - - -
19/03:00pm 21.5 SE 22 26 1022.9 - 0.0 - - - - - - -
19/02:30pm 22.1 SE 21 25 1023.2 - 0.0 - - - - - - -
19/02:00pm 22.7 SE 20 23 1023.6 - 0.0 - - - - - - -
19/01:30pm 22.4 SE 21 25 1023.9 - 0.0 - - - - - - -
19/01:00pm 22.3 SE 21 24 1024.3 - 0.0 - - - - - - -
19/12:30pm 22.5 SE 21 24 1024.5 - 0.0 - - - - - - -
19/12:00pm 22.5 SE 20 24 1024.7 - 0.0 - - - - - - -
19/11:30am 22.8 SE 20 23 1025.2 - 0.0 - - - - - - -
19/11:00am 22.9 ESE 18 22 1025.4 - 0.0 - - - - - - -
19/10:30am 21.8 ESE 16 19 1025.9 - 0.0 - - - - - - -
19/10:00am 22.8 ESE 19 23 1026.1 - 0.0 - - - - - - -
19/09:30am 22.8 ESE 20 24 1026.5 - 0.0 - - - - - - -
19/09:00am 22.2 ESE 22 25 1026.4 - 0.2 - - - - - - -
19/08:30am 22.1 ESE 19 26 1026.3 - 0.2 - - - - - - -
19/08:00am 21.8 ESE 21 25 1026.2 - 0.2 - - - - - - -
19/07:30am 21.5 ESE 21 26 1025.9 - 0.2 - - - - - - -
19/07:00am 21.1 ESE 23 27 1025.7 - 0.2 - - - - - - -
19/06:30am 20.1 ESE 25 29 1025.2 - 0.2 - - - - - - -
19/06:00am 20.0 ESE 25 30 1025.1 - 0.2 - - - - - - -
19/05:30am 20.0 ESE 24 28 1024.7 - 0.2 - - - - - - -
19/05:00am 19.6 ESE 24 29 1024.4 - 0.2 - - - - - - -
19/04:30am 19.4 ESE 21 27 1024.2 - 0.2 - - - - - - -
19/04:00am 19.7 ESE 21 25 1023.8 - 0.2 - - - - - - -
19/03:30am 19.6 ESE 23 26 1023.7 - 0.2 - - - - - - -
19/03:00am 18.8 E 23 29 1023.6 - 0.2 - - - - - - -
19/02:30am 19.9 ESE 21 26 1023.6 - 0.2 - - - - - - -
19/02:00am 19.9 ESE 21 26 1023.6 - 0.2 - - - - - - -
19/01:30am 19.8 ESE 21 24 1023.8 - 0.2 - - - - - - -
19/01:00am 19.9 ESE 23 27 1024.1 - 0.2 - - - - - - -
19/12:30am 20.0 ESE 25 30 1024.3 - 0.2 - - - - - - -
19/12:00am 20.1 ESE 24 29 1024.4 - 0.2 - - - - - - -
 
Date/Time
EST
Temp

°C
Wind Pressure Rain
since 9am
mm
Weather Cloud Vis
km
Sea
Height
m
Swell
Dir
 
Speed
knots
Gust
knots
hPa Trend Height
m
Period
s
Dir
18/11:30pm 20.3 ESE 23 27 1024.7 - 0.2 - - - - - - -
18/11:00pm 20.2 ESE 23 28 1024.8 - 0.2 - - - - - - -
18/10:30pm 20.3 ESE 23 28 1025.1 - 0.2 - - - - - - -
18/10:00pm 20.1 ESE 20 23 1025.1 - 0.2 - - - - - - -
18/09:30pm 20.5 ESE 21 25 1025.2 - 0.2 - - - - - - -
18/09:00pm 20.3 ESE 20 24 1025.1 - 0.2 - - - - - - -
18/08:30pm 20.2 ESE 20 25 1025.1 - 0.2 - - - - - - -
18/08:00pm 20.3 ESE 21 25 1024.9 - 0.2 - - - - - - -
18/07:30pm 20.3 ESE 24 28 1024.4 - 0.2 - - - - - - -
18/07:00pm 20.5 ESE 23 26 1024.2 - 0.2 - - - - - - -
18/06:30pm 20.5 ESE 19 23 1024.0 - 0.2 - - - - - - -
18/06:00pm 20.3 ESE 20 24 1023.6 - 0.2 - - - - - - -
18/05:30pm 20.6 ESE 20 25 1023.1 - 0.2 - - - - - - -
18/05:00pm 20.8 SE 20 24 1022.8 - 0.2 - - - - - - -
18/04:30pm 21.1 ESE 20 25 1022.6 - 0.2 - - - - - - -
18/04:00pm 21.5 SE 21 25 1022.3 - 0.2 - - - - - - -
18/03:30pm 21.6 SE 22 26 1022.3 - 0.2 - - - - - - -
18/03:00pm 21.1 SE 23 28 1022.3 - 0.2 - - - - - - -
18/02:30pm 21.9 SE 24 28 1022.4 - 0.2 - - - - - - -
18/02:00pm 21.4 SE 25 27 1022.6 - 0.2 - - - - - - -
18/01:30pm 22.2 SSE 20 24 1022.9 - 0.2 - - - - - - -
18/01:00pm 21.7 SSE 21 25 1023.1 - 0.2 - - - - - - -
18/12:30pm 20.5 SE 21 27 1023.3 - 0.2 - - - - - - -
18/12:00pm 22.2 SSE 20 23 1023.7 - 0.2 - - - - - - -
18/11:30am 21.6 SSE 25 29 1023.9 - 0.2 - - - - - - -
18/11:00am 20.6 SSE 22 28 1023.8 - 0.2 - - - - - - -
18/10:30am 21.0 SSE 21 26 1024.1 - 0.2 - - - - - - -
18/10:00am 21.0 SSE 24 29 1024.2 - 0.2 - - - - - - -
18/09:30am 21.6 SSE 21 26 1024.1 - 0.0 - - - - - - -
18/09:00am 20.0 SSE 22 29 1024.2 - 5.2 - - - - - - -
18/08:30am 20.3 SSE 21 27 1024.1 - 5.2 - - - - - - -
18/08:00am 19.0 S 22 25 1024.0 - 5.2 - - - - - - -
18/07:30am 19.8 SSE 18 23 1023.8 - 5.2 - - - - - - -
18/07:00am 19.3 SSE 18 22 1023.4 - 5.2 - - - - - - -
18/06:30am 18.1 S 11 15 1023.1 - 5.2 - - - - - - -
18/06:00am 17.6 S 18 22 1022.8 - 5.2 Recent precip. - - - - - -
18/05:30am 17.4 SE 23 29 1022.4 - 5.0 - - - - - - -
18/05:18am 17.0 SE 20 23 1022.4 - 4.8 - - - - - - -
18/05:00am 17.4 S 13 14 1022.0 - 2.2 - - - - - - -
18/04:30am 16.9 SSW 10 12 1021.7 - 2.2 - - - - - - -
18/04:00am 16.7 SSW 13 15 1021.4 - 2.2 - - - - - - -
18/03:30am 17.2 S 22 29 1021.0 - 0.8 - - - - - - -
18/03:00am 18.0 SSE 15 22 1020.8 - 0.2 Rain - - - - - -
18/02:30am 20.6 E 11 14 1020.5 - 0.0 - - - - - - -
18/02:00am 20.5 E 11 13 1020.5 - 0.0 - - - - - - -
18/01:30am 20.3 E 12 15 1020.6 - 0.0 - - - - - - -
18/01:00am 20.3 E 11 14 1020.9 - 0.0 - - - - - - -
18/12:30am 20.3 E 11 13 1021.1 - 0.0 - - - - - - -
18/12:00am 20.4 E 11 13 1021.1 - 0.0 - - - - - - -
 
Date/Time
EST
Temp

°C
Wind Pressure Rain
since 9am
mm
Weather Cloud Vis
km
Sea
Height
m
Swell
Dir
 
Speed
knots
Gust
knots
hPa Trend Height
m
Period
s
Dir
17/11:30pm 20.5 E 12 15 1021.3 - 0.0 - - - - - - -

Other Formats:

Comma delimited format used in spreadsheet applications
http://www.bom.gov.au/fwo/IDQ60701/IDQ60701.94584.axf

JavaScript Object Notation format (JSON) in row-major order
http://www.bom.gov.au/fwo/IDQ60701/IDQ60701.94584.json